Terminal Aerodrome Forecast
Issued by NWS Missoula, MT

Home | Current Version | Previous Version | Text Only | Print | Product List | Glossary On
Versions: 1 2 3 4 5 6 7 8 9 10 11 12
000
FTUS45 KMSO 011122
TAFGPI
TAF
KGPI 011122Z 0112/0212 17006KT P6SM -SHRA FEW050 BKN070
     FM011400 21006KT P6SM -SHRA VCTS BKN040CB OVC050
     FM011800 22011KT P6SM VCSH BKN080=

USA.gov is the U.S. government's official web portal to all federal, state and local government web resources and services.